Portada
METAR-TAF:

METAR-TAF

Aeroports :

Illa de Man,

latitud: 54-05N, longitud: 004-38W, altitud: 17 m

Observació

L'informe es va fer fa 48 minuts, a les 19:50 UTC
Vent 5 kt del Nord
Temperatura 20°C
Humitat 46%
Pressió 1024 hPa
Visibilitat 10 km o més
sense núvols per sota de 1500 mi sense presència de cumulonimbus.

METAR: EGNS 011950Z 35005KT CAVOK 20/08 Q1024

Hora: 21:38 (20:38 UTC)

Pronòstic

L'informe es va fer fa 3 hores i 38 minuts, a les 17:00 UTC
Pronòstic vàlid del 01 a les 18 UTC al 01 a les 21 UTC
Vent 4 kt del Nord/Nord-Oest
Visibilitat 10 km o més
sense núvols per sota de 1500 mi sense presència de cumulonimbus.

TAF: EGNS 011700Z 0118/0121 34004KT CAVOK

Observacions i pronòstics meteorològics de més de 4000 aeroports (METAR i TAF).

Les estacions disponibles són els punts grocs i vermells al mapa.

Posi el ratolí al punt desitjat per veure el nom de l'estació.

Feu clic per veure les observacions i els pronòstics meteorològics.

Per canviar el mapa: feu clic els botons verds amb una creu de color negre per apropar; al botó verd amb un guió per allunyar la imatge; o en les fletxes verdes per a mapes adjacents.


METAR-TAF: